Ana Sayfa
METAR-TAF:

METAR-TAF

Havaalanları :

Funafuti, Tuvalu

Enlem: 08-31S, Boylam: 179-13E, yükseklik: 1 m

Güncel hava durumu gözlemi

Rapor saat 23:00 UTC de 1 saat ve 0 dakika önce yapıldı.
Rüzgar doğudan 5 kt
Sıcaklık 32°C
Nem 67%
Basınç 1010 hPa
Görüş mesafesi 10 km veya daha fazla
2000 ft yükseklikte az bulutlu
31000 ft yükseklikte parçalı bulutlu

METAR: NGFU 252300Z 09005KT 9999 FEW020 SCT310 32/25 Q1010

Saat: 12:00 (00:00 UTC)

Tahmin

Rapor saat 23:06 UTC de 54 dakika önce yapıldı.
Ayın 26'si saat 00 UTC'den ayın 26'si saat 24 UTC'ye kadar geçerli Tahmin
Rüzgar doğudan 10 kt
Görüş mesafesi 10 km veya daha fazla
2000 ft yükseklikte parçalı bulutlu

TAF: NGFU 252306Z 2600/2624 09010KT 9999 SCT020

4.000'den fazla havaalanı için hava durumu gözlemleri ve tahminleri (METAR ve TAF raporları).

Kullanılabilir istasyonlar harita üzerinde sarı ve kırmızı noktalarla gösterilir.

İstasyonun adını görmek için fareyi noktanın üzerinde gezdirin.

Sonrasında hava gözlem ve tahminlerini görmek için tıklayın.

Haritayı değiştirmek için: yaklaştırmak için siyah artı işaretli yeşil düğmeye ve uzaklaştırmak için de eksi işaretli düğmeye hızla tıklayın; bitişik haritalar için yeşil okları kullanın.


METAR-TAF: